Star Quality — 9V9355 — position and weather

sailwx.info

Track history (hours):
 
Tides and Currents Weather Stations Pressure Air Temp Water Temp Dewpoint Dewpoint Depression Visibility Wind Speed Wind Dir Waves Ship Positions

Star Quality

Last reported at 2018-Feb-04 07:43 UTC. Time now 2018-Feb-19 12:19 UTC.
Position N 37°19' W 029°46'.
Warning: this ship's position is 15 days out of date.

Length 163 m; draft 8.7 m.

Type: Cargo ship. MMSI: 566059000.

Date/timePositionNaut miles runAvg speedWind from/ knotsBaromVisibWave heightAir tempDewpointWater temp
2018-Feb-04 07:43N 37°19' W 029°46'720.5
2018-Feb-04 07:22N 37°23' W 029°38'720.4
2018-Feb-04 07:00N 37°26' W 029°30'1020.3
2018-Feb-04 06:30N 37°31' W 029°18'1020.7
2018-Feb-04 06:01N 37°35' W 029°07'1120.9
2018-Feb-04 05:30N 37°40' W 028°55'1020.9
2018-Feb-04 05:00N 37°45' W 028°43'1021.0
2018-Feb-04 04:30N 37°50' W 028°32'1020.9
2018-Feb-04 04:01N 37°55' W 028°20'1121.0
2018-Feb-04 03:30N 37°60' W 028°08'1021.0
2018-Feb-04 03:00N 38°05' W 027°56'1020.7
2018-Feb-04 02:30N 38°10' W 027°45'1020.3
2018-Feb-04 02:00N 38°14' W 027°33'1020.7
2018-Feb-04 01:30N 38°19' W 027°21'1020.9
2018-Feb-04 01:00N 38°24' W 027°10'1121.3
2018-Feb-04 00:30N 38°29' W 026°58'1021.1
2018-Feb-04 00:00N 38°35' W 026°47'1020.6
2018-Feb-03 23:30N 38°41' W 026°36'3820.7
2018-Feb-03 21:40N 39°03' W 025°56'420.9
2018-Feb-03 21:28N 39°05' W 025°51'3420.9
2018-Feb-03 19:50N 39°25' W 025°15'  
2018-Feb-01 12:41N 49°48' W 003°37'721.7
2018-Feb-01 12:23N 49°51' W 003°29'820.9
2018-Feb-01 12:00N 49°53' W 003°17'2019.6
2018-Feb-01 11:00N 49°59' W 002°48'918.0
2018-Feb-01 10:30N 50°02' W 002°34'2116.0
2018-Feb-01 09:11N 50°08' W 002°03'314.5
2018-Feb-01 09:00N 50°09' W 001°59'714.0
2018-Feb-01 08:30N 50°10' W 001°49'1413.9
2018-Feb-01 07:30N 50°14' W 001°28'714.6
2018-Feb-01 07:00N 50°17' W 001°17'3217.5
2018-Feb-01 05:10N 50°25' W 000°28'319.3
2018-Feb-01 05:00N 50°26' W 000°23'1019.4
2018-Feb-01 04:31N 50°29' W 000°09'1019.5
2018-Feb-01 04:01N 50°32' E 000°05'2019.4
2018-Feb-01 03:00N 50°37' E 000°35'918.7
2018-Feb-01 02:31N 50°43' E 000°47'1017.6
2018-Feb-01 01:58N 50°48' E 000°60'1316.8
2018-Feb-01 01:09N 50°55' E 001°18'415.6
2018-Feb-01 00:52N 50°58' E 001°23'615.2
2018-Feb-01 00:30N 51°02' E 001°29'815.1
2018-Feb-01 00:01N 51°08' E 001°37'1616.2
2018-Jan-31 23:01N 51°20' E 001°53'815.5
2018-Jan-31 22:30N 51°25' E 002°03'2516.7
2018-Jan-31 20:59N 51°23' E 002°43'612.8
2018-Jan-31 20:30N 51°22' E 002°53'816.9
2018-Jan-31 20:00N 51°24' E 003°06'917.8
2018-Jan-31 19:30N 51°24' E 003°21'917.4
2018-Jan-31 19:00N 51°26' E 003°34'510.2
2018-Jan-31 18:30N 51°28' E 003°42'1 1.6
2018-Jan-31 17:57N 51°29' E 003°42'0 0.0
2018-Jan-31 17:30N 51°29' E 003°42'0 0.0
2018-Jan-31 16:57N 51°29' E 003°42'0 0.0
2018-Jan-31 16:27N 51°29' E 003°42'0 0.0
2018-Jan-31 15:57N 51°29' E 003°42'0 0.0
2018-Jan-31 15:27N 51°29' E 003°42'0 0.0
2018-Jan-31 14:57N 51°29' E 003°42'0 0.0
2018-Jan-31 14:30N 51°29' E 003°42'0 0.0
2018-Jan-31 12:48N 51°29' E 003°42'0 0.0
2018-Jan-31 12:30N 51°29' E 003°42'0 0.0
2018-Jan-31 11:09N 51°29' E 003°42'0 0.0
2018-Jan-31 10:45N 51°29' E 003°42'0 0.0
2018-Jan-31 10:27N 51°29' E 003°42'0 0.0
2018-Jan-31 10:00N 51°29' E 003°42'0 0.0
2018-Jan-31 09:15N 51°29' E 003°42'0 0.0
2018-Jan-31 08:57N 51°29' E 003°42'0 0.0
2018-Jan-31 08:27N 51°29' E 003°42'0 0.0
2018-Jan-31 07:57N 51°29' E 003°42'0 0.0
2018-Jan-31 07:15N 51°29' E 003°42'0 0.0
2018-Jan-31 07:00N 51°29' E 003°42'0 0.0
2018-Jan-31 06:27N 51°29' E 003°42'0 0.0
2018-Jan-31 06:00N 51°29' E 003°42'0 0.0
2018-Jan-31 05:27N 51°29' E 003°42'0 0.0
2018-Jan-31 05:00N 51°29' E 003°42'0 0.0
2018-Jan-31 04:30N 51°29' E 003°42'0 0.0
2018-Jan-31 03:57N 51°29' E 003°42'0 0.0
2018-Jan-31 03:21N 51°29' E 003°42'0 0.0
2018-Jan-31 02:57N 51°29' E 003°42'0 0.0
2018-Jan-31 02:06N 51°29' E 003°42'0 0.0
2018-Jan-31 02:00N 51°29' E 003°42'0 0.0
2018-Jan-31 01:27N 51°29' E 003°42'0 0.0
2018-Jan-31 01:00N 51°29' E 003°42'0 0.0
2018-Jan-30 23:57N 51°29' E 003°42'0 0.0
2018-Jan-30 23:30N 51°29' E 003°42'0 0.0
2018-Jan-30 22:51N 51°29' E 003°42'0 0.0
2018-Jan-30 22:27N 51°29' E 003°42'0 0.0
2018-Jan-30 21:27N 51°29' E 003°42'0 0.0
2018-Jan-30 20:57N 51°29' E 003°42'0 0.0
2018-Jan-30 20:27N 51°29' E 003°42'0 0.0
2018-Jan-30 20:00N 51°29' E 003°42'0 0.0
2018-Jan-30 19:03N 51°29' E 003°42'0 0.0
2018-Jan-30 18:57N 51°29' E 003°42'0 0.0
2018-Jan-30 18:27N 51°29' E 003°42'0 0.0
2018-Jan-30 17:51N 51°29' E 003°42'0 0.0
2018-Jan-30 17:21N 51°29' E 003°42'0 0.0
2018-Jan-30 17:00N 51°29' E 003°42'0 0.0
2018-Jan-30 16:30N 51°29' E 003°42'0 0.0
2018-Jan-30 15:51N 51°29' E 003°42'0 0.0
2018-Jan-30 15:21N 51°29' E 003°42'0 0.0
2018-Jan-30 15:00N 51°29' E 003°42'0 0.0
2018-Jan-30 14:09N 51°29' E 003°42'0 0.0
2018-Jan-30 13:21N 51°29' E 003°42'0 0.0
2018-Jan-30 12:51N 51°29' E 003°42'0 0.0
2018-Jan-30 12:30N 51°29' E 003°42'0 0.0
2018-Jan-30 12:00N 51°29' E 003°42'0 0.0
2018-Jan-30 11:21N 51°29' E 003°42'0 0.0
2018-Jan-30 10:30N 51°29' E 003°42'0 0.0
2018-Jan-30 09:15N 51°29' E 003°42'0 0.0
2018-Jan-30 08:42N 51°29' E 003°42'0 0.0
2018-Jan-30 08:12N 51°29' E 003°42'0 0.0
2018-Jan-30 07:57N 51°29' E 003°42'0 0.0
2018-Jan-30 07:30N 51°29' E 003°42'0 0.0
2018-Jan-30 07:00N 51°29' E 003°42'0 0.0
2018-Jan-30 06:27N 51°29' E 003°42'0 0.0
2018-Jan-30 05:54N 51°29' E 003°42'0 0.0
2018-Jan-30 05:15N 51°29' E 003°42'0 0.0
2018-Jan-30 04:51N 51°29' E 003°42'0 0.0
2018-Jan-30 04:27N 51°29' E 003°42'0 0.0
2018-Jan-30 03:57N 51°29' E 003°42'0 0.0
2018-Jan-30 03:30N 51°29' E 003°42'0 0.0
2018-Jan-30 03:00N 51°29' E 003°42'0 0.0
2018-Jan-30 02:24N 51°29' E 003°42'0 0.0
2018-Jan-30 00:42N 51°29' E 003°42'0 0.0
2018-Jan-29 23:39N 51°29' E 003°42'0 0.0
2018-Jan-29 23:12N 51°29' E 003°42'0 0.0
2018-Jan-29 22:36N 51°29' E 003°42'0 0.1
2018-Jan-29 22:30N 51°29' E 003°42'0 0.0
2018-Jan-29 21:51N 51°29' E 003°42'0 0.0
2018-Jan-29 21:09N 51°29' E 003°42'0 0.0
2018-Jan-29 20:57N 51°29' E 003°42'0 0.0
2018-Jan-29 20:27N 51°29' E 003°42'0 0.0
2018-Jan-29 20:00N 51°29' E 003°42'0 0.0
2018-Jan-29 19:27N 51°29' E 003°42'0 0.0
2018-Jan-29 18:57N 51°29' E 003°42'0 0.0
2018-Jan-29 18:21N 51°29' E 003°42'0 0.0
2018-Jan-29 17:57N 51°29' E 003°42'0 0.0
2018-Jan-29 17:15N 51°29' E 003°42'0 0.0
2018-Jan-29 16:45N 51°29' E 003°42'0 0.0
2018-Jan-29 16:18N 51°29' E 003°42'0 0.0
2018-Jan-29 15:57N 51°29' E 003°42'0 0.0
2018-Jan-29 15:30N 51°29' E 003°42'0 0.0
2018-Jan-29 15:00N 51°29' E 003°42'0 0.0
2018-Jan-29 14:12N 51°29' E 003°42'0 0.0
2018-Jan-29 13:54N 51°29' E 003°42'0 0.0
2018-Jan-29 13:27N 51°29' E 003°42'0 0.0
2018-Jan-29 12:51N 51°29' E 003°42'0 0.0
2018-Jan-29 12:27N 51°29' E 003°42'0 0.0
2018-Jan-29 12:00N 51°29' E 003°42'0 0.0
2018-Jan-29 11:21N 51°29' E 003°42'0 0.0
2018-Jan-29 11:00N 51°29' E 003°42'0 0.0
2018-Jan-29 10:30N 51°29' E 003°42'0 0.0
2018-Jan-29 09:57N 51°29' E 003°42'0 0.0
2018-Jan-29 09:27N 51°29' E 003°42'0 0.0
2018-Jan-29 08:57N 51°29' E 003°42'0 0.0
2018-Jan-29 08:27N 51°29' E 003°42'0 0.0
2018-Jan-29 08:00N 51°29' E 003°42'0 0.0
2018-Jan-29 07:09N 51°29' E 003°42'0 0.0
2018-Jan-29 06:51N 51°29' E 003°42'0 0.0
2018-Jan-29 06:27N 51°29' E 003°42'0 0.0
2018-Jan-29 06:00N 51°29' E 003°42'0 0.0
2018-Jan-29 05:27N 51°29' E 003°42'0 0.0
2018-Jan-29 04:57N 51°29' E 003°42'0 0.0
2018-Jan-29 04:21N 51°29' E 003°42'0 0.0
2018-Jan-29 04:00N 51°29' E 003°42'0 0.0
2018-Jan-29 03:27N 51°29' E 003°42'0 0.0
2018-Jan-29 02:57N 51°29' E 003°42'1 1.2
2018-Jan-29 02:30N 51°28' E 003°43'3 5.7
2018-Jan-29 02:00N 51°26' E 003°39'612.2
2018-Jan-29 01:30N 51°25' E 003°29'714.8
2018-Jan-29 01:00N 51°24' E 003°18'815.8
2018-Jan-29 00:30N 51°24' E 003°05'816.0
2018-Jan-29 00:00N 51°22' E 002°52'612.8
2018-Jan-28 23:30N 51°23' E 002°42'4 8.1
2018-Jan-28 23:00N 51°22' E 002°36'4 7.2
2018-Jan-28 22:30N 51°22' E 002°30'714.4
2018-Jan-28 22:00N 51°19' E 002°19'918.0
2018-Jan-28 21:31N 51°21' E 002°05'917.5
2018-Jan-28 21:01N 51°26' E 001°54'816.1
2018-Jan-28 20:30N 51°30' E 001°43'714.8
2018-Jan-28 20:00N 51°28' E 001°31'5 9.7
2018-Jan-28 19:30N 51°28' E 001°23'611.5
2018-Jan-28 19:01N 51°29' E 001°14'5 9.3
2018-Jan-28 18:30N 51°29' E 001°07'3 6.5
2018-Jan-28 18:00N 51°29' E 001°02'510.2
2018-Jan-28 17:30N 51°29' E 000°54'611.2
2018-Jan-28 17:00N 51°27' E 000°45'1 1.4
2018-Jan-28 16:27N 51°26' E 000°44'0 0.0
2018-Jan-28 16:00N 51°26' E 000°44'0 0.0
2018-Jan-28 15:30N 51°26' E 000°44'0 0.0
2018-Jan-28 15:00N 51°26' E 000°44'0 0.0
2018-Jan-28 14:30N 51°26' E 000°44'0 0.0
2018-Jan-28 14:00N 51°26' E 000°44'0 0.0
2018-Jan-28 13:30N 51°26' E 000°44'0 0.0
2018-Jan-28 13:00N 51°26' E 000°44'0 0.0
2018-Jan-28 12:27N 51°26' E 000°44'0 0.0
2018-Jan-28 12:00N 51°26' E 000°44'0 0.0
2018-Jan-28 11:27N 51°26' E 000°44'0 0.0
2018-Jan-28 10:57N 51°26' E 000°44'0 0.0
2018-Jan-28 10:30N 51°26' E 000°44'0 0.0
2018-Jan-28 10:00N 51°26' E 000°44'0 0.0
2018-Jan-28 09:30N 51°26' E 000°44'0 0.0
2018-Jan-28 09:00N 51°26' E 000°44'0 0.0
2018-Jan-28 08:30N 51°26' E 000°44'0 0.0
2018-Jan-28 08:00N 51°26' E 000°44'0 0.0
2018-Jan-28 07:30N 51°26' E 000°44'1 1.8
2018-Jan-28 07:00N 51°27' E 000°45'713.7
2018-Jan-28 06:30N 51°29' E 000°56'714.8
2018-Jan-28 06:00N 51°29' E 001°08'715.0
2018-Jan-28 05:31N 51°29' E 001°20'714.3
2018-Jan-28 05:01N 51°26' E 001°30'3 6.6
2018-Jan-28 04:30N 51°24' E 001°34'510.3
2018-Jan-28 04:00N 51°21' E 001°41'611.5
2018-Jan-28 03:30N 51°15' E 001°39'612.6
2018-Jan-28 03:01N 51°09' E 001°36'510.0
2018-Jan-28 02:30N 51°04' E 001°37'2 4.2
2018-Jan-28 02:01N 51°03' E 001°35'612.0
2018-Jan-28 01:30N 50°58' E 001°29'815.1
2018-Jan-28 00:59N 50°51' E 001°24'3414.6
2018-Jan-27 22:40N 50°27' E 000°45'416.2
2018-Jan-27 22:25N 50°26' E 000°39'716.2
2018-Jan-27 21:59N 50°25' E 000°28'816.3
2018-Jan-27 21:30N 50°23' E 000°16'816.0
2018-Jan-27 21:00N 50°20' E 000°04'816.1
2018-Jan-27 20:30N 50°18' W 000°08'9115.5
2018-Jan-27 14:38N 49°56' W 002°25'417.7
2018-Jan-27 14:26N 49°54' W 002°30'817.5
2018-Jan-27 14:00N 49°52' W 002°42'817.2
2018-Jan-27 13:30N 49°50' W 002°55'817.0
2018-Jan-27 13:01N 49°47' W 003°07'917.1
2018-Jan-27 12:30N 49°44' W 003°19'1117.0
2018-Jan-27 11:50N 49°41' W 003°36'  
Track history (hours):
 
Tides and Currents Weather Stations Pressure Air Temp Water Temp Dewpoint Dewpoint Depression Visibility Wind Speed Wind Dir Waves Ship Positions

Star Quality

Last reported at 2018-Feb-04 07:43 UTC. Time now 2018-Feb-19 12:19 UTC.
Position N 37°19' W 029°46'.
Warning: this ship's position is 15 days out of date.

Length 163 m; draft 8.7 m.

Type: Cargo ship. MMSI: 566059000.

Date/timePositionNaut miles runAvg speedWind from/ knotsBaromVisibWave heightAir tempDewpointWater temp
2018-Feb-04 07:43N 37°19' W 029°46'720.5
2018-Feb-04 07:22N 37°23' W 029°38'720.4
2018-Feb-04 07:00N 37°26' W 029°30'1020.3
2018-Feb-04 06:30N 37°31' W 029°18'1020.7
2018-Feb-04 06:01N 37°35' W 029°07'1120.9
2018-Feb-04 05:30N 37°40' W 028°55'1020.9
2018-Feb-04 05:00N 37°45' W 028°43'1021.0
2018-Feb-04 04:30N 37°50' W 028°32'1020.9
2018-Feb-04 04:01N 37°55' W 028°20'1121.0
2018-Feb-04 03:30N 37°60' W 028°08'1021.0
2018-Feb-04 03:00N 38°05' W 027°56'1020.7
2018-Feb-04 02:30N 38°10' W 027°45'1020.3
2018-Feb-04 02:00N 38°14' W 027°33'1020.7
2018-Feb-04 01:30N 38°19' W 027°21'1020.9
2018-Feb-04 01:00N 38°24' W 027°10'1121.3
2018-Feb-04 00:30N 38°29' W 026°58'1021.1
2018-Feb-04 00:00N 38°35' W 026°47'1020.6
2018-Feb-03 23:30N 38°41' W 026°36'3820.7
2018-Feb-03 21:40N 39°03' W 025°56'420.9
2018-Feb-03 21:28N 39°05' W 025°51'3420.9
2018-Feb-03 19:50N 39°25' W 025°15'  
2018-Feb-01 12:41N 49°48' W 003°37'721.7
2018-Feb-01 12:23N 49°51' W 003°29'820.9
2018-Feb-01 12:00N 49°53' W 003°17'2019.6
2018-Feb-01 11:00N 49°59' W 002°48'918.0
2018-Feb-01 10:30N 50°02' W 002°34'2116.0
2018-Feb-01 09:11N 50°08' W 002°03'314.5
2018-Feb-01 09:00N 50°09' W 001°59'714.0
2018-Feb-01 08:30N 50°10' W 001°49'1413.9
2018-Feb-01 07:30N 50°14' W 001°28'714.6
2018-Feb-01 07:00N 50°17' W 001°17'3217.5
2018-Feb-01 05:10N 50°25' W 000°28'319.3
2018-Feb-01 05:00N 50°26' W 000°23'1019.4
2018-Feb-01 04:31N 50°29' W 000°09'1019.5
2018-Feb-01 04:01N 50°32' E 000°05'2019.4
2018-Feb-01 03:00N 50°37' E 000°35'918.7
2018-Feb-01 02:31N 50°43' E 000°47'1017.6
2018-Feb-01 01:58N 50°48' E 000°60'1316.8
2018-Feb-01 01:09N 50°55' E 001°18'415.6
2018-Feb-01 00:52N 50°58' E 001°23'615.2
2018-Feb-01 00:30N 51°02' E 001°29'815.1
2018-Feb-01 00:01N 51°08' E 001°37'1616.2
2018-Jan-31 23:01N 51°20' E 001°53'815.5
2018-Jan-31 22:30N 51°25' E 002°03'2516.7
2018-Jan-31 20:59N 51°23' E 002°43'612.8
2018-Jan-31 20:30N 51°22' E 002°53'816.9
2018-Jan-31 20:00N 51°24' E 003°06'917.8
2018-Jan-31 19:30N 51°24' E 003°21'917.4
2018-Jan-31 19:00N 51°26' E 003°34'510.2
2018-Jan-31 18:30N 51°28' E 003°42'1 1.6
2018-Jan-31 17:57N 51°29' E 003°42'0 0.0
2018-Jan-31 17:30N 51°29' E 003°42'0 0.0
2018-Jan-31 16:57N 51°29' E 003°42'0 0.0
2018-Jan-31 16:27N 51°29' E 003°42'0 0.0
2018-Jan-31 15:57N 51°29' E 003°42'0 0.0
2018-Jan-31 15:27N 51°29' E 003°42'0 0.0
2018-Jan-31 14:57N 51°29' E 003°42'0 0.0
2018-Jan-31 14:30N 51°29' E 003°42'0 0.0
2018-Jan-31 12:48N 51°29' E 003°42'0 0.0
2018-Jan-31 12:30N 51°29' E 003°42'0 0.0
2018-Jan-31 11:09N 51°29' E 003°42'0 0.0
2018-Jan-31 10:45N 51°29' E 003°42'0 0.0
2018-Jan-31 10:27N 51°29' E 003°42'0 0.0
2018-Jan-31 10:00N 51°29' E 003°42'0 0.0
2018-Jan-31 09:15N 51°29' E 003°42'0 0.0
2018-Jan-31 08:57N 51°29' E 003°42'0 0.0
2018-Jan-31 08:27N 51°29' E 003°42'0 0.0
2018-Jan-31 07:57N 51°29' E 003°42'0 0.0
2018-Jan-31 07:15N 51°29' E 003°42'0 0.0
2018-Jan-31 07:00N 51°29' E 003°42'0 0.0
2018-Jan-31 06:27N 51°29' E 003°42'0 0.0
2018-Jan-31 06:00N 51°29' E 003°42'0 0.0
2018-Jan-31 05:27N 51°29' E 003°42'0 0.0
2018-Jan-31 05:00N 51°29' E 003°42'0 0.0
2018-Jan-31 04:30N 51°29' E 003°42'0 0.0
2018-Jan-31 03:57N 51°29' E 003°42'0 0.0
2018-Jan-31 03:21N 51°29' E 003°42'0 0.0
2018-Jan-31 02:57N 51°29' E 003°42'0 0.0
2018-Jan-31 02:06N 51°29' E 003°42'0 0.0
2018-Jan-31 02:00N 51°29' E 003°42'0 0.0
2018-Jan-31 01:27N 51°29' E 003°42'0 0.0
2018-Jan-31 01:00N 51°29' E 003°42'0 0.0
2018-Jan-30 23:57N 51°29' E 003°42'0 0.0
2018-Jan-30 23:30N 51°29' E 003°42'0 0.0
2018-Jan-30 22:51N 51°29' E 003°42'0 0.0
2018-Jan-30 22:27N 51°29' E 003°42'0 0.0
2018-Jan-30 21:27N 51°29' E 003°42'0 0.0
2018-Jan-30 20:57N 51°29' E 003°42'0 0.0
2018-Jan-30 20:27N 51°29' E 003°42'0 0.0
2018-Jan-30 20:00N 51°29' E 003°42'0 0.0
2018-Jan-30 19:03N 51°29' E 003°42'0 0.0
2018-Jan-30 18:57N 51°29' E 003°42'0 0.0
2018-Jan-30 18:27N 51°29' E 003°42'0 0.0
2018-Jan-30 17:51N 51°29' E 003°42'0 0.0
2018-Jan-30 17:21N 51°29' E 003°42'0 0.0
2018-Jan-30 17:00N 51°29' E 003°42'0 0.0
2018-Jan-30 16:30N 51°29' E 003°42'0 0.0
2018-Jan-30 15:51N 51°29' E 003°42'0 0.0
2018-Jan-30 15:21N 51°29' E 003°42'0 0.0
2018-Jan-30 15:00N 51°29' E 003°42'0 0.0
2018-Jan-30 14:09N 51°29' E 003°42'0 0.0
2018-Jan-30 13:21N 51°29' E 003°42'0 0.0
2018-Jan-30 12:51N 51°29' E 003°42'0 0.0
2018-Jan-30 12:30N 51°29' E 003°42'0 0.0
2018-Jan-30 12:00N 51°29' E 003°42'0 0.0
2018-Jan-30 11:21N 51°29' E 003°42'0 0.0
2018-Jan-30 10:30N 51°29' E 003°42'0 0.0
2018-Jan-30 09:15N 51°29' E 003°42'0 0.0
2018-Jan-30 08:42N 51°29' E 003°42'0 0.0
2018-Jan-30 08:12N 51°29' E 003°42'0 0.0
2018-Jan-30 07:57N 51°29' E 003°42'0 0.0
2018-Jan-30 07:30N 51°29' E 003°42'0 0.0
2018-Jan-30 07:00N 51°29' E 003°42'0 0.0
2018-Jan-30 06:27N 51°29' E 003°42'0 0.0
2018-Jan-30 05:54N 51°29' E 003°42'0 0.0
2018-Jan-30 05:15N 51°29' E 003°42'0 0.0
2018-Jan-30 04:51N 51°29' E 003°42'0 0.0
2018-Jan-30 04:27N 51°29' E 003°42'0 0.0
2018-Jan-30 03:57N 51°29' E 003°42'0 0.0
2018-Jan-30 03:30N 51°29' E 003°42'0 0.0
2018-Jan-30 03:00N 51°29' E 003°42'0 0.0
2018-Jan-30 02:24N 51°29' E 003°42'0 0.0
2018-Jan-30 00:42N 51°29' E 003°42'0 0.0
2018-Jan-29 23:39N 51°29' E 003°42'0 0.0
2018-Jan-29 23:12N 51°29' E 003°42'0 0.0
2018-Jan-29 22:36N 51°29' E 003°42'0 0.1
2018-Jan-29 22:30N 51°29' E 003°42'0 0.0
2018-Jan-29 21:51N 51°29' E 003°42'0 0.0
2018-Jan-29 21:09N 51°29' E 003°42'0 0.0
2018-Jan-29 20:57N 51°29' E 003°42'0 0.0
2018-Jan-29 20:27N 51°29' E 003°42'0 0.0
2018-Jan-29 20:00N 51°29' E 003°42'0 0.0
2018-Jan-29 19:27N 51°29' E 003°42'0 0.0
2018-Jan-29 18:57N 51°29' E 003°42'0 0.0
2018-Jan-29 18:21N 51°29' E 003°42'0 0.0
2018-Jan-29 17:57N 51°29' E 003°42'0 0.0
2018-Jan-29 17:15N 51°29' E 003°42'0 0.0
2018-Jan-29 16:45N 51°29' E 003°42'0 0.0
2018-Jan-29 16:18N 51°29' E 003°42'0 0.0
2018-Jan-29 15:57N 51°29' E 003°42'0 0.0
2018-Jan-29 15:30N 51°29' E 003°42'0 0.0
2018-Jan-29 15:00N 51°29' E 003°42'0 0.0
2018-Jan-29 14:12N 51°29' E 003°42'0 0.0
2018-Jan-29 13:54N 51°29' E 003°42'0 0.0
2018-Jan-29 13:27N 51°29' E 003°42'0 0.0
2018-Jan-29 12:51N 51°29' E 003°42'0 0.0
2018-Jan-29 12:27N 51°29' E 003°42'0 0.0
2018-Jan-29 12:00N 51°29' E 003°42'0 0.0
2018-Jan-29 11:21N 51°29' E 003°42'0 0.0
2018-Jan-29 11:00N 51°29' E 003°42'0 0.0
2018-Jan-29 10:30N 51°29' E 003°42'0 0.0
2018-Jan-29 09:57N 51°29' E 003°42'0 0.0
2018-Jan-29 09:27N 51°29' E 003°42'0 0.0
2018-Jan-29 08:57N 51°29' E 003°42'0 0.0
2018-Jan-29 08:27N 51°29' E 003°42'0 0.0
2018-Jan-29 08:00N 51°29' E 003°42'0 0.0
2018-Jan-29 07:09N 51°29' E 003°42'0 0.0
2018-Jan-29 06:51N 51°29' E 003°42'0 0.0
2018-Jan-29 06:27N 51°29' E 003°42'0 0.0
2018-Jan-29 06:00N 51°29' E 003°42'0 0.0
2018-Jan-29 05:27N 51°29' E 003°42'0 0.0
2018-Jan-29 04:57N 51°29' E 003°42'0 0.0
2018-Jan-29 04:21N 51°29' E 003°42'0 0.0
2018-Jan-29 04:00N 51°29' E 003°42'0 0.0
2018-Jan-29 03:27N 51°29' E 003°42'0 0.0
2018-Jan-29 02:57N 51°29' E 003°42'1 1.2
2018-Jan-29 02:30N 51°28' E 003°43'3 5.7
2018-Jan-29 02:00N 51°26' E 003°39'612.2
2018-Jan-29 01:30N 51°25' E 003°29'714.8
2018-Jan-29 01:00N 51°24' E 003°18'815.8
2018-Jan-29 00:30N 51°24' E 003°05'816.0
2018-Jan-29 00:00N 51°22' E 002°52'612.8
2018-Jan-28 23:30N 51°23' E 002°42'4 8.1
2018-Jan-28 23:00N 51°22' E 002°36'4 7.2
2018-Jan-28 22:30N 51°22' E 002°30'714.4
2018-Jan-28 22:00N 51°19' E 002°19'918.0
2018-Jan-28 21:31N 51°21' E 002°05'917.5
2018-Jan-28 21:01N 51°26' E 001°54'816.1
2018-Jan-28 20:30N 51°30' E 001°43'714.8
2018-Jan-28 20:00N 51°28' E 001°31'5 9.7
2018-Jan-28 19:30N 51°28' E 001°23'611.5
2018-Jan-28 19:01N 51°29' E 001°14'5 9.3
2018-Jan-28 18:30N 51°29' E 001°07'3 6.5
2018-Jan-28 18:00N 51°29' E 001°02'510.2
2018-Jan-28 17:30N 51°29' E 000°54'611.2
2018-Jan-28 17:00N 51°27' E 000°45'1 1.4
2018-Jan-28 16:27N 51°26' E 000°44'0 0.0
2018-Jan-28 16:00N 51°26' E 000°44'0 0.0
2018-Jan-28 15:30N 51°26' E 000°44'0 0.0
2018-Jan-28 15:00N 51°26' E 000°44'0 0.0
2018-Jan-28 14:30N 51°26' E 000°44'0 0.0
2018-Jan-28 14:00N 51°26' E 000°44'0 0.0
2018-Jan-28 13:30N 51°26' E 000°44'0 0.0
2018-Jan-28 13:00N 51°26' E 000°44'0 0.0
2018-Jan-28 12:27N 51°26' E 000°44'0 0.0
2018-Jan-28 12:00N 51°26' E 000°44'0 0.0
2018-Jan-28 11:27N 51°26' E 000°44'0 0.0
2018-Jan-28 10:57N 51°26' E 000°44'0 0.0
2018-Jan-28 10:30N 51°26' E 000°44'0 0.0
2018-Jan-28 10:00N 51°26' E 000°44'0 0.0
2018-Jan-28 09:30N 51°26' E 000°44'0 0.0
2018-Jan-28 09:00N 51°26' E 000°44'0 0.0
2018-Jan-28 08:30N 51°26' E 000°44'0 0.0
2018-Jan-28 08:00N 51°26' E 000°44'0 0.0
2018-Jan-28 07:30N 51°26' E 000°44'1 1.8
2018-Jan-28 07:00N 51°27' E 000°45'713.7
2018-Jan-28 06:30N 51°29' E 000°56'714.8
2018-Jan-28 06:00N 51°29' E 001°08'715.0
2018-Jan-28 05:31N 51°29' E 001°20'714.3
2018-Jan-28 05:01N 51°26' E 001°30'3 6.6
2018-Jan-28 04:30N 51°24' E 001°34'510.3
2018-Jan-28 04:00N 51°21' E 001°41'611.5
2018-Jan-28 03:30N 51°15' E 001°39'612.6
2018-Jan-28 03:01N 51°09' E 001°36'510.0
2018-Jan-28 02:30N 51°04' E 001°37'2 4.2
2018-Jan-28 02:01N 51°03' E 001°35'612.0
2018-Jan-28 01:30N 50°58' E 001°29'815.1
2018-Jan-28 00:59N 50°51' E 001°24'3414.6
2018-Jan-27 22:40N 50°27' E 000°45'416.2
2018-Jan-27 22:25N 50°26' E 000°39'716.2
2018-Jan-27 21:59N 50°25' E 000°28'816.3
2018-Jan-27 21:30N 50°23' E 000°16'816.0
2018-Jan-27 21:00N 50°20' E 000°04'816.1
2018-Jan-27 20:30N 50°18' W 000°08'9115.5
2018-Jan-27 14:38N 49°56' W 002°25'417.7
2018-Jan-27 14:26N 49°54' W 002°30'817.5
2018-Jan-27 14:00N 49°52' W 002°42'817.2
2018-Jan-27 13:30N 49°50' W 002°55'817.0
2018-Jan-27 13:01N 49°47' W 003°07'917.1
2018-Jan-27 12:30N 49°44' W 003°19'1117.0
2018-Jan-27 11:50N 49°41' W 003°36'  

Dump ship's entire track history